createdAt,value
2023-03-19T00:01:38.033Z,13.30
2023-03-19T00:04:08.273Z,13.10
2023-03-19T00:06:38.525Z,13.40
2023-03-19T00:09:07.745Z,14.10
2023-03-19T00:11:38.164Z,13.50
2023-03-19T00:14:08.226Z,13.80
2023-03-19T00:16:38.564Z,14.40
2023-03-19T00:19:10.319Z,13.80
2023-03-19T00:21:40.161Z,13.40
2023-03-19T00:24:10.289Z,13.30
2023-03-19T00:26:40.530Z,13.60
2023-03-19T00:29:10.624Z,13.00
2023-03-19T00:31:41.136Z,13.00
2023-03-19T00:34:12.060Z,13.00
2023-03-19T00:36:41.857Z,13.20
2023-03-19T00:39:11.888Z,12.30
2023-03-19T00:41:41.750Z,10.90
2023-03-19T00:44:10.927Z,11.70
2023-03-19T00:46:41.136Z,10.60
2023-03-19T00:49:11.328Z,10.30
2023-03-19T00:51:44.265Z,9.50
2023-03-19T00:54:19.498Z,10.20
2023-03-19T00:56:50.606Z,11.50
2023-03-19T00:59:20.956Z,11.10
2023-03-19T01:01:51.806Z,11.60
2023-03-19T01:04:22.174Z,11.70
2023-03-19T01:06:52.138Z,11.80
2023-03-19T01:09:21.610Z,11.00
2023-03-19T01:11:53.740Z,11.10
2023-03-19T01:14:23.725Z,10.50
2023-03-19T01:16:55.360Z,9.60
2023-03-19T01:19:33.934Z,10.20
2023-03-19T01:22:05.051Z,11.10
2023-03-19T01:24:35.868Z,9.30
2023-03-19T01:27:06.307Z,11.00
2023-03-19T01:29:43.730Z,10.20
2023-03-19T01:32:21.344Z,10.50
2023-03-19T01:35:07.821Z,9.30
2023-03-19T01:37:38.541Z,9.10
2023-03-19T01:40:12.506Z,8.80
2023-03-19T01:42:54.743Z,9.90
2023-03-19T01:45:45.272Z,8.50
2023-03-19T01:48:55.774Z,7.30
2023-03-19T01:51:29.502Z,9.70
2023-03-19T01:54:14.059Z,9.60
2023-03-19T01:57:09.170Z,8.80
2023-03-19T02:00:02.174Z,10.10
2023-03-19T02:02:54.673Z,11.00
2023-03-19T02:05:48.316Z,10.10
2023-03-19T02:08:19.833Z,9.00
2023-03-19T02:10:51.073Z,9.80
2023-03-19T02:13:20.922Z,10.20
2023-03-19T02:15:52.317Z,9.20
2023-03-19T02:18:23.276Z,9.50
2023-03-19T02:21:12.269Z,10.30
2023-03-19T02:23:54.869Z,9.70
2023-03-19T02:26:37.260Z,9.60
2023-03-19T02:29:09.219Z,8.70
2023-03-19T02:31:39.405Z,9.30
2023-03-19T02:34:21.870Z,9.20
2023-03-19T02:37:04.526Z,9.70
2023-03-19T02:42:04.816Z,7.60
2023-03-19T02:44:35.125Z,7.90
2023-03-19T02:47:07.014Z,8.40
2023-03-19T02:49:37.428Z,9.10
2023-03-19T02:52:07.608Z,9.00
2023-03-19T02:54:40.049Z,8.80
2023-03-19T02:57:11.155Z,7.90
2023-03-19T02:59:41.758Z,8.40
2023-03-19T03:02:11.419Z,8.90
2023-03-19T03:04:42.531Z,8.40
2023-03-19T03:07:12.608Z,8.50
2023-03-19T03:09:42.636Z,7.80
2023-03-19T03:12:13.380Z,8.50
2023-03-19T03:14:55.298Z,7.50
2023-03-19T03:17:26.022Z,8.20
2023-03-19T03:19:57.627Z,9.40
2023-03-19T03:22:42.657Z,8.20
2023-03-19T03:25:13.413Z,8.10
2023-03-19T03:27:53.885Z,7.30
2023-03-19T03:30:27.058Z,7.00
2023-03-19T03:32:57.020Z,7.30
2023-03-19T03:35:30.419Z,7.30
2023-03-19T03:38:09.125Z,7.20
2023-03-19T03:40:39.877Z,6.70
2023-03-19T03:43:10.955Z,7.00
2023-03-19T03:45:44.970Z,7.50
2023-03-19T03:48:18.495Z,8.90
2023-03-19T03:50:49.726Z,7.10
2023-03-19T03:53:22.753Z,7.10
2023-03-19T03:55:56.020Z,7.90
2023-03-19T03:58:38.345Z,8.40
2023-03-19T04:01:20.028Z,7.20
2023-03-19T04:03:51.424Z,7.50
2023-03-19T04:06:24.208Z,8.40
2023-03-19T04:09:10.026Z,8.30
2023-03-19T04:11:42.225Z,7.80
2023-03-19T04:14:13.394Z,7.90
2023-03-19T04:16:47.713Z,7.90
2023-03-19T04:19:18.184Z,8.90
2023-03-19T04:21:47.818Z,9.00
2023-03-19T04:24:18.476Z,9.60
2023-03-19T04:26:57.923Z,8.80
2023-03-19T04:29:29.437Z,10.70
2023-03-19T04:32:10.585Z,8.50
2023-03-19T04:34:45.978Z,8.40
2023-03-19T04:37:16.366Z,8.10
2023-03-19T04:39:55.101Z,10.10
2023-03-19T04:42:28.516Z,10.00
2023-03-19T04:45:18.678Z,10.70
2023-03-19T04:47:54.449Z,12.00
2023-03-19T04:50:31.130Z,10.30
2023-03-19T04:53:02.651Z,10.60
2023-03-19T04:55:33.089Z,10.10
2023-03-19T04:58:24.906Z,10.70
2023-03-19T05:01:08.891Z,9.70
2023-03-19T05:03:58.892Z,9.00
2023-03-19T05:06:32.681Z,9.40
2023-03-19T05:09:16.805Z,9.20
2023-03-19T05:11:48.232Z,9.00
2023-03-19T05:14:35.188Z,8.80
2023-03-19T05:17:44.482Z,10.80
2023-03-19T05:20:37.750Z,8.40
2023-03-19T05:23:18.708Z,8.50
2023-03-19T05:26:03.022Z,9.60
2023-03-19T05:29:00.759Z,9.10
2023-03-19T05:31:39.679Z,7.50
2023-03-19T05:36:45.199Z,7.60
2023-03-19T05:39:21.765Z,8.60
2023-03-19T05:41:54.222Z,9.20
2023-03-19T05:44:32.343Z,8.50
2023-03-19T05:47:42.724Z,9.30
2023-03-19T05:50:15.157Z,7.60
2023-03-19T05:53:08.901Z,9.90
2023-03-19T05:55:39.587Z,11.30
2023-03-19T05:58:18.813Z,11.80
2023-03-19T06:00:48.980Z,11.70
2023-03-19T06:03:18.774Z,11.10
2023-03-19T06:05:51.868Z,9.90
2023-03-19T06:08:36.344Z,11.10
2023-03-19T06:13:54.494Z,10.30
2023-03-19T06:16:24.062Z,9.10
2023-03-19T06:18:55.369Z,11.20
2023-03-19T06:21:29.907Z,10.90
2023-03-19T06:24:02.980Z,10.90
2023-03-19T06:26:36.238Z,10.10
2023-03-19T06:29:14.922Z,9.30
2023-03-19T06:31:48.765Z,9.90
2023-03-19T06:34:43.843Z,9.70
2023-03-19T06:37:17.399Z,9.80
2023-03-19T06:39:47.289Z,9.30
2023-03-19T06:42:17.642Z,8.30
2023-03-19T06:44:48.370Z,8.90
2023-03-19T06:47:18.211Z,9.40
2023-03-19T06:49:48.047Z,8.40
2023-03-19T06:52:17.249Z,8.30
2023-03-19T06:54:46.868Z,9.50
2023-03-19T06:57:15.912Z,8.60
2023-03-19T06:59:44.838Z,8.40
2023-03-19T07:02:14.010Z,9.20
2023-03-19T07:04:43.815Z,8.40
2023-03-19T07:07:13.196Z,9.40
2023-03-19T07:09:43.918Z,8.90
2023-03-19T07:12:16.876Z,10.20
2023-03-19T07:14:46.220Z,9.70
2023-03-19T07:17:16.875Z,9.40
2023-03-19T07:22:17.621Z,9.30
2023-03-19T07:24:47.887Z,8.50
2023-03-19T07:27:32.163Z,8.90
2023-03-19T07:30:08.209Z,7.70
2023-03-19T07:32:37.647Z,8.90
2023-03-19T07:35:14.750Z,8.30
2023-03-19T07:38:02.246Z,8.60
2023-03-19T07:40:32.999Z,7.60
2023-03-19T07:43:17.275Z,8.00
2023-03-19T07:45:54.415Z,7.40
2023-03-19T07:48:25.084Z,7.20
2023-03-19T07:50:59.046Z,7.50
2023-03-19T07:53:28.542Z,8.00
2023-03-19T07:55:58.469Z,8.00
2023-03-19T07:58:31.360Z,8.00
2023-03-19T08:01:05.643Z,7.90
2023-03-19T08:03:36.006Z,6.20
2023-03-19T08:06:06.297Z,5.60
2023-03-19T08:08:41.650Z,6.50
2023-03-19T08:11:17.886Z,6.90
2023-03-19T08:13:47.920Z,6.70
2023-03-19T08:16:19.792Z,6.00
2023-03-19T08:18:52.758Z,6.30
2023-03-19T08:21:27.920Z,6.30
2023-03-19T08:23:57.563Z,5.70
2023-03-19T08:26:28.845Z,7.10
2023-03-19T08:28:58.525Z,8.10
2023-03-19T08:31:27.781Z,6.80
2023-03-19T08:34:00.905Z,8.10
2023-03-19T08:39:06.729Z,8.10
2023-03-19T08:41:35.835Z,7.90
2023-03-19T08:44:05.442Z,7.70
2023-03-19T08:46:35.589Z,8.60
2023-03-19T08:49:06.041Z,9.90
2023-03-19T08:51:36.768Z,9.20
2023-03-19T08:54:15.390Z,8.30
2023-03-19T08:56:45.352Z,10.50
2023-03-19T08:59:14.408Z,11.10
2023-03-19T09:01:44.751Z,10.00
2023-03-19T09:04:15.762Z,9.60
2023-03-19T09:07:03.078Z,11.00
2023-03-19T09:09:33.089Z,10.20
2023-03-19T09:12:02.313Z,10.50
2023-03-19T09:14:33.944Z,11.30
2023-03-19T09:17:03.676Z,10.40
2023-03-19T09:19:53.439Z,10.10
2023-03-19T09:22:22.711Z,10.20
2023-03-19T09:24:52.501Z,11.10
2023-03-19T09:27:22.299Z,10.70
2023-03-19T09:29:52.900Z,10.20
2023-03-19T09:32:22.654Z,9.70
2023-03-19T09:38:17.888Z,9.90
2023-03-19T09:40:51.046Z,9.70
2023-03-19T09:43:38.322Z,9.00
2023-03-19T09:46:33.132Z,8.40
2023-03-19T09:49:14.032Z,7.70
2023-03-19T09:51:53.663Z,8.20
2023-03-19T09:57:44.817Z,7.30
2023-03-19T10:00:24.440Z,9.40
2023-03-19T10:03:08.546Z,7.20
2023-03-19T10:05:46.105Z,7.20
2023-03-19T10:08:52.142Z,7.70
2023-03-19T10:11:51.054Z,6.10
2023-03-19T10:14:44.383Z,6.40
2023-03-19T10:17:32.391Z,5.90
2023-03-19T10:20:47.157Z,6.60
2023-03-19T10:24:11.032Z,5.80
2023-03-19T10:26:47.993Z,5.40
2023-03-19T10:29:24.684Z,5.70
2023-03-19T10:32:21.860Z,5.20
2023-03-19T10:34:56.200Z,5.90
2023-03-19T10:37:29.391Z,5.20
2023-03-19T10:40:01.180Z,5.50
2023-03-19T10:42:57.298Z,5.10
2023-03-19T10:45:34.340Z,4.90
2023-03-19T10:48:05.738Z,4.90
2023-03-19T10:50:43.835Z,4.60
2023-03-19T10:53:16.213Z,4.40
2023-03-19T10:58:21.514Z,4.60
2023-03-19T11:00:59.256Z,5.10
2023-03-19T11:03:48.851Z,5.10
2023-03-19T11:06:24.494Z,4.50
2023-03-19T11:08:57.952Z,4.40
2023-03-19T11:11:37.256Z,4.50
2023-03-19T11:14:29.134Z,4.70
2023-03-19T11:17:05.766Z,4.90
2023-03-19T11:19:49.571Z,4.60
2023-03-19T11:22:39.144Z,4.10
2023-03-19T11:25:26.057Z,4.50
2023-03-19T11:28:09.438Z,4.50
2023-03-19T11:31:10.774Z,4.60
2023-03-19T11:34:01.457Z,4.50
2023-03-19T11:37:14.215Z,4.40
2023-03-19T11:40:09.461Z,3.90
2023-03-19T11:43:00.837Z,4.30
2023-03-19T11:45:44.941Z,5.00
2023-03-19T11:48:42.933Z,4.60
2023-03-19T11:51:27.657Z,4.50
2023-03-19T11:54:00.164Z,4.60
2023-03-19T11:57:04.855Z,4.80
2023-03-19T11:59:45.645Z,4.40
2023-03-19T12:03:01.179Z,4.20
2023-03-19T12:06:26.504Z,4.10
2023-03-19T12:09:08.433Z,4.80
2023-03-19T12:14:16.814Z,4.30
2023-03-19T12:17:04.834Z,4.20
2023-03-19T12:19:59.706Z,4.50
2023-03-19T12:22:54.417Z,4.70
2023-03-19T12:25:38.418Z,3.80
2023-03-19T12:28:25.353Z,4.00
2023-03-19T12:31:31.519Z,4.30
2023-03-19T12:34:26.660Z,4.80
2023-03-19T12:37:14.650Z,4.40
2023-03-19T12:40:08.224Z,5.10
2023-03-19T12:42:42.528Z,4.40
2023-03-19T12:45:44.351Z,4.40
2023-03-19T12:48:29.351Z,3.70
2023-03-19T12:51:09.904Z,4.00
2023-03-19T12:54:09.609Z,4.70
2023-03-19T12:57:02.280Z,4.20
2023-03-19T12:59:39.033Z,3.80
2023-03-19T13:02:35.331Z,3.90
2023-03-19T13:05:23.437Z,4.40
2023-03-19T13:08:19.754Z,4.10
2023-03-19T13:10:49.130Z,4.60
2023-03-19T13:13:44.469Z,4.70
2023-03-19T13:16:36.179Z,3.90
2023-03-19T13:19:30.765Z,3.70
2023-03-19T13:22:05.014Z,4.20
2023-03-19T13:24:45.013Z,3.70
2023-03-19T13:27:25.683Z,4.00
2023-03-19T13:30:12.635Z,4.00
2023-03-19T13:32:46.913Z,4.10
2023-03-19T13:35:40.088Z,4.00
2023-03-19T13:38:21.473Z,4.20
2023-03-19T13:40:54.853Z,4.00
2023-03-19T13:43:49.006Z,4.20
2023-03-19T13:53:59.905Z,3.50
2023-03-19T13:56:30.858Z,4.10
2023-03-19T14:01:53.208Z,3.90
2023-03-19T14:04:26.714Z,5.00
2023-03-19T14:07:00.159Z,4.40
2023-03-19T14:10:07.375Z,4.00
2023-03-19T14:12:44.605Z,3.70
2023-03-19T14:15:13.594Z,3.80
2023-03-19T14:17:56.603Z,4.20
2023-03-19T14:20:37.551Z,3.70
2023-03-19T14:23:23.328Z,3.80
2023-03-19T14:26:03.141Z,3.70
2023-03-19T14:28:50.551Z,3.80
2023-03-19T14:31:39.112Z,3.60
2023-03-19T14:34:11.636Z,3.70
2023-03-19T14:36:50.062Z,3.60
2023-03-19T14:39:24.875Z,4.10
2023-03-19T14:42:15.408Z,4.50
2023-03-19T14:45:09.600Z,3.60
2023-03-19T14:48:20.104Z,3.80
2023-03-19T14:51:07.392Z,3.70
2023-03-19T14:54:21.671Z,3.40
2023-03-19T15:00:56.354Z,4.40
2023-03-19T15:03:38.471Z,4.10
2023-03-19T15:06:40.792Z,4.30
2023-03-19T15:09:35.032Z,4.40
2023-03-19T15:12:32.110Z,4.70
2023-03-19T15:15:28.247Z,4.70
2023-03-19T15:18:04.481Z,4.30
2023-03-19T15:20:50.503Z,4.00
2023-03-19T15:24:09.532Z,4.60
2023-03-19T15:27:03.431Z,4.60
2023-03-19T15:29:37.586Z,4.70
2023-03-19T15:32:11.705Z,4.10
2023-03-19T15:37:42.535Z,4.70
2023-03-19T15:40:16.483Z,4.60
2023-03-19T15:42:49.121Z,4.80
2023-03-19T15:46:20.388Z,4.80
2023-03-19T15:49:42.436Z,6.80
2023-03-19T15:52:16.174Z,4.90
2023-03-19T15:54:46.778Z,4.90
2023-03-19T15:57:18.859Z,7.30
2023-03-19T15:59:48.317Z,7.30
2023-03-19T16:02:31.995Z,5.70
2023-03-19T16:05:20.826Z,6.30
2023-03-19T16:07:58.451Z,6.70
2023-03-19T16:10:29.273Z,6.20
2023-03-19T16:13:05.693Z,7.20
2023-03-19T16:15:45.695Z,7.20
2023-03-19T16:18:21.941Z,8.80
2023-03-19T16:21:30.183Z,7.70
2023-03-19T16:24:03.037Z,7.40
2023-03-19T16:26:43.922Z,6.50
2023-03-19T16:29:25.888Z,7.40
2023-03-19T16:32:00.033Z,7.50
2023-03-19T16:35:06.559Z,7.00
2023-03-19T16:37:41.454Z,7.50
2023-03-19T16:40:14.312Z,6.90
2023-03-19T16:42:53.215Z,6.50
2023-03-19T16:45:32.481Z,8.20
2023-03-19T16:48:06.751Z,8.50
2023-03-19T16:50:42.481Z,9.70
2023-03-19T16:53:25.302Z,9.60
2023-03-19T16:55:57.255Z,8.90
2023-03-19T16:58:35.306Z,10.00
2023-03-19T17:01:21.592Z,9.20
2023-03-19T17:03:54.530Z,8.50
2023-03-19T17:06:35.274Z,8.40
2023-03-19T17:09:05.169Z,8.30
2023-03-19T17:11:41.249Z,8.20
2023-03-19T17:14:23.039Z,8.30
2023-03-19T17:16:54.791Z,8.30
2023-03-19T17:19:37.235Z,9.10
2023-03-19T17:22:07.337Z,9.10
2023-03-19T17:24:37.180Z,9.70
2023-03-19T17:27:07.068Z,10.70
2023-03-19T17:29:36.364Z,9.80
2023-03-19T17:32:14.653Z,10.80
2023-03-19T17:34:44.149Z,11.70
2023-03-19T17:37:17.206Z,12.00
2023-03-19T17:39:46.899Z,13.10
2023-03-19T17:42:26.654Z,12.70
2023-03-19T17:45:01.384Z,12.20
2023-03-19T17:48:17.434Z,13.10
2023-03-19T17:50:47.287Z,12.10
2023-03-19T17:53:19.188Z,11.60
2023-03-19T17:55:48.226Z,15.30
2023-03-19T17:58:21.684Z,12.60
2023-03-19T18:00:52.769Z,13.50
2023-03-19T18:03:25.174Z,12.90
2023-03-19T18:05:54.920Z,13.70
2023-03-19T18:08:24.513Z,12.60
2023-03-19T18:10:53.670Z,12.50
2023-03-19T18:13:28.565Z,14.10
2023-03-19T18:15:59.235Z,14.70
2023-03-19T18:18:29.684Z,15.00
2023-03-19T18:21:00.657Z,14.20
2023-03-19T18:23:34.460Z,12.70
2023-03-19T18:26:04.036Z,13.00
2023-03-19T18:28:33.355Z,13.80
2023-03-19T18:31:03.161Z,14.10
2023-03-19T18:33:35.280Z,12.60
2023-03-19T18:36:04.687Z,13.10
2023-03-19T18:38:34.726Z,15.40
2023-03-19T18:41:07.607Z,15.40
2023-03-19T18:43:40.156Z,15.90
2023-03-19T18:46:32.478Z,17.70
2023-03-19T18:49:32.466Z,16.10
2023-03-19T18:52:03.876Z,16.00
2023-03-19T18:55:14.609Z,16.70
2023-03-19T18:57:57.625Z,15.00
2023-03-19T19:00:49.585Z,16.40
2023-03-19T19:03:29.769Z,17.00
2023-03-19T19:06:03.319Z,16.90
2023-03-19T19:08:32.484Z,16.50
2023-03-19T19:11:10.404Z,16.80
2023-03-19T19:13:55.223Z,17.60
2023-03-19T19:16:37.846Z,17.00
2023-03-19T19:19:24.251Z,15.70
2023-03-19T19:21:54.102Z,15.60
2023-03-19T19:24:24.839Z,13.90
2023-03-19T19:27:04.776Z,15.20
2023-03-19T19:29:34.781Z,17.00
2023-03-19T19:36:00.013Z,16.20
2023-03-19T19:38:30.755Z,17.90
2023-03-19T19:41:02.173Z,17.60
2023-03-19T19:43:39.754Z,16.80
2023-03-19T19:46:13.491Z,16.20
2023-03-19T19:48:45.543Z,16.70
2023-03-19T19:53:56.417Z,14.60
2023-03-19T19:56:29.924Z,17.00
2023-03-19T19:59:06.908Z,16.70
2023-03-19T20:01:54.718Z,16.80
2023-03-19T20:04:30.466Z,15.50
2023-03-19T20:07:00.293Z,15.10
2023-03-19T20:09:33.348Z,15.60
2023-03-19T20:12:36.494Z,17.40
2023-03-19T20:15:21.839Z,16.30
2023-03-19T20:17:55.830Z,18.70
2023-03-19T20:20:28.855Z,16.90
2023-03-19T20:23:04.509Z,17.90
2023-03-19T20:25:39.865Z,17.00
2023-03-19T20:28:24.787Z,16.10
2023-03-19T20:30:57.733Z,16.30
2023-03-19T20:33:27.766Z,15.60
2023-03-19T20:35:58.162Z,17.70
2023-03-19T20:38:29.789Z,26.10
2023-03-19T20:41:02.184Z,28.70
2023-03-19T20:43:38.092Z,22.60
2023-03-19T20:46:08.231Z,20.40
2023-03-19T20:48:42.554Z,18.00
2023-03-19T20:51:20.370Z,16.30
2023-03-19T20:54:00.953Z,16.20
2023-03-19T20:56:31.816Z,17.20
2023-03-19T20:59:06.211Z,13.40
2023-03-19T21:01:35.920Z,16.20
2023-03-19T21:04:11.026Z,13.90
2023-03-19T21:06:52.397Z,14.60
2023-03-19T21:09:26.328Z,13.20
2023-03-19T21:11:56.076Z,13.70
2023-03-19T21:14:27.454Z,13.30
2023-03-19T21:16:57.371Z,13.10
2023-03-19T21:19:26.698Z,13.00
2023-03-19T21:21:57.778Z,14.80
2023-03-19T21:24:28.270Z,14.00
2023-03-19T21:27:26.161Z,13.60
2023-03-19T21:29:56.124Z,13.20
2023-03-19T21:32:28.298Z,13.70
2023-03-19T21:35:00.183Z,12.50
2023-03-19T21:37:30.862Z,13.20
2023-03-19T21:40:01.236Z,13.10
2023-03-19T21:42:34.563Z,13.60
2023-03-19T21:45:04.035Z,13.90
2023-03-19T21:47:33.873Z,14.20
2023-03-19T21:50:03.041Z,14.20
2023-03-19T21:52:42.798Z,14.50
2023-03-19T21:55:20.010Z,13.80
2023-03-19T21:57:49.777Z,13.80
2023-03-19T22:00:20.628Z,12.50
2023-03-19T22:02:51.421Z,12.40
2023-03-19T22:05:25.577Z,13.20
2023-03-19T22:07:56.119Z,13.40
2023-03-19T22:13:00.432Z,11.50
2023-03-19T22:15:37.797Z,13.00
2023-03-19T22:18:16.077Z,12.20
2023-03-19T22:20:47.701Z,12.00
2023-03-19T22:23:19.333Z,13.00
2023-03-19T22:25:51.608Z,12.60
2023-03-19T22:28:35.323Z,12.50
2023-03-19T22:31:05.599Z,11.60
2023-03-19T22:33:35.857Z,13.20
2023-03-19T22:36:06.425Z,13.30
2023-03-19T22:38:35.635Z,12.40
2023-03-19T22:41:13.966Z,12.80
2023-03-19T22:43:45.921Z,13.00
2023-03-19T22:46:18.750Z,13.80
2023-03-19T22:48:57.650Z,12.80
2023-03-19T22:51:31.161Z,12.80
2023-03-19T22:54:03.251Z,12.40
2023-03-19T22:59:02.740Z,12.20
2023-03-19T23:01:38.436Z,11.70
2023-03-19T23:04:29.450Z,14.50
2023-03-19T23:07:01.120Z,13.90
2023-03-19T23:09:36.760Z,14.50
2023-03-19T23:14:37.283Z,11.50
2023-03-19T23:17:19.915Z,13.60
2023-03-19T23:19:50.860Z,12.80
2023-03-19T23:22:21.316Z,13.70
2023-03-19T23:24:51.138Z,12.40
2023-03-19T23:27:26.616Z,11.20
2023-03-19T23:29:57.022Z,12.00
2023-03-19T23:32:27.214Z,14.00
2023-03-19T23:35:01.440Z,13.80
2023-03-19T23:37:32.972Z,12.80
2023-03-19T23:40:02.336Z,13.10
2023-03-19T23:42:32.585Z,13.00
2023-03-19T23:45:04.240Z,11.60
2023-03-19T23:47:34.447Z,12.20
2023-03-19T23:50:04.491Z,14.20
2023-03-19T23:52:34.162Z,13.60
2023-03-19T23:55:07.386Z,13.20
2023-03-19T23:57:39.744Z,12.60
